Terminal Aerodrome Forecast
Issued by NWS Boston, MA

Current Version | Previous Version | Text Only | Print | Product List | Glossary On
Versions: 1 2 3 4 5 6 7 8 9 10 11 12 13 14 15 16 17 18 19 20 21 22 23 24 25 26 27 28 29 30 31 32 33 34 35 36 37 38 39 40 41 42 43 44 45 46 47 48 49
000 FTUS41 KBOX 311120 TAFBDL TAF KBDL 311120Z 3112/0118 VRB03KT P6SM BKN250 FM311600 21007KT P6SM VCTS SCT050CB BKN120 FM312300 20007KT P6SM SCT050 FM010900 00000KT 3SM BR SCT250 FM011300 VRB03KT P6SM SCT250 FM011700 19006KT P6SM BKN045 BKN050=

USA.gov is the U.S. government's official web portal to all federal, state and local government web resources and services.